createdAt,value
2023-04-02T00:00:28.656Z,7.10
2023-04-02T00:03:03.690Z,7.20
2023-04-02T00:05:52.282Z,7.20
2023-04-02T00:08:30.032Z,7.10
2023-04-02T00:11:02.354Z,7.20
2023-04-02T00:13:36.742Z,7.20
2023-04-02T00:16:11.090Z,7.20
2023-04-02T00:18:45.975Z,7.30
2023-04-02T00:21:20.382Z,7.30
2023-04-02T00:23:51.846Z,7.30
2023-04-02T00:26:25.708Z,7.20
2023-04-02T00:28:56.450Z,7.10
2023-04-02T00:31:27.523Z,7.10
2023-04-02T00:33:59.637Z,7.10
2023-04-02T00:36:34.249Z,7.00
2023-04-02T00:39:08.549Z,7.10
2023-04-02T00:41:41.852Z,7.00
2023-04-02T00:44:18.889Z,7.10
2023-04-02T00:46:50.713Z,7.10
2023-04-02T00:49:28.784Z,7.10
2023-04-02T00:52:02.770Z,7.10
2023-04-02T00:54:37.157Z,7.10
2023-04-02T00:57:13.745Z,7.10
2023-04-02T00:59:51.903Z,7.10
2023-04-02T01:02:29.576Z,7.10
2023-04-02T01:05:03.624Z,7.10
2023-04-02T01:07:46.508Z,7.20
2023-04-02T01:10:35.358Z,7.20
2023-04-02T01:13:12.608Z,7.20
2023-04-02T01:15:46.478Z,7.10
2023-04-02T01:18:26.061Z,7.20
2023-04-02T01:21:35.001Z,7.20
2023-04-02T01:24:26.649Z,7.10
2023-04-02T01:26:59.876Z,7.00
2023-04-02T01:29:33.003Z,7.10
2023-04-02T01:32:07.142Z,7.10
2023-04-02T01:34:38.184Z,7.00
2023-04-02T01:37:23.342Z,7.00
2023-04-02T01:40:17.408Z,7.10
2023-04-02T01:42:52.659Z,7.10
2023-04-02T01:45:25.887Z,7.10
2023-04-02T01:47:59.875Z,7.00
2023-04-02T01:50:33.560Z,7.00
2023-04-02T01:53:10.002Z,6.90
2023-04-02T01:55:46.429Z,6.90
2023-04-02T01:58:20.626Z,6.90
2023-04-02T02:00:54.802Z,7.00
2023-04-02T02:03:26.504Z,7.10
2023-04-02T02:05:58.208Z,7.10
2023-04-02T02:08:36.878Z,7.10
2023-04-02T02:11:09.387Z,7.10
2023-04-02T02:13:42.272Z,7.20
2023-04-02T02:16:18.061Z,7.20
2023-04-02T02:18:52.416Z,7.10
2023-04-02T02:21:30.481Z,7.10
2023-04-02T02:24:05.050Z,7.10
2023-04-02T02:26:38.069Z,7.20
2023-04-02T02:29:11.758Z,7.10
2023-04-02T02:31:44.912Z,7.10
2023-04-02T02:34:19.032Z,7.10
2023-04-02T02:36:54.236Z,7.10
2023-04-02T02:39:29.005Z,7.10
2023-04-02T02:42:03.303Z,7.10
2023-04-02T02:44:37.223Z,7.00
2023-04-02T02:47:12.135Z,7.00
2023-04-02T02:49:46.446Z,7.00
2023-04-02T02:52:19.119Z,7.10
2023-04-02T02:54:53.638Z,7.10
2023-04-02T02:57:27.676Z,7.10
2023-04-02T03:00:00.274Z,7.10
2023-04-02T03:02:32.091Z,7.00
2023-04-02T03:05:04.904Z,7.00
2023-04-02T03:07:37.616Z,7.10
2023-04-02T03:10:12.698Z,7.20
2023-04-02T03:12:47.725Z,7.20
2023-04-02T03:15:26.118Z,7.30
2023-04-02T03:18:00.367Z,7.20
2023-04-02T03:20:37.737Z,7.20
2023-04-02T03:23:13.242Z,7.30
2023-04-02T03:25:47.094Z,7.30
2023-04-02T03:28:21.016Z,7.20
2023-04-02T03:31:02.698Z,7.20
2023-04-02T03:33:36.249Z,7.20
2023-04-02T03:36:13.248Z,7.20
2023-04-02T03:38:46.474Z,7.20
2023-04-02T03:41:20.055Z,7.20
2023-04-02T03:43:53.589Z,7.20
2023-04-02T03:46:30.229Z,7.20
2023-04-02T03:49:03.642Z,7.20
2023-04-02T03:51:37.328Z,7.30
2023-04-02T03:54:10.828Z,7.20
2023-04-02T03:56:41.810Z,7.30
2023-04-02T03:59:18.014Z,7.30
2023-04-02T04:01:51.901Z,7.20
2023-04-02T04:04:23.405Z,7.20
2023-04-02T04:06:55.204Z,7.10
2023-04-02T04:09:29.232Z,7.10
2023-04-02T04:12:05.240Z,7.10
2023-04-02T04:14:38.486Z,7.20
2023-04-02T04:17:16.045Z,7.20
2023-04-02T04:19:50.064Z,7.10
2023-04-02T04:22:24.647Z,7.10
2023-04-02T04:24:56.958Z,7.10
2023-04-02T04:27:32.865Z,7.10
2023-04-02T04:30:06.867Z,7.10
2023-04-02T04:32:39.372Z,7.10
2023-04-02T04:35:18.481Z,7.00
2023-04-02T04:37:56.033Z,7.10
2023-04-02T04:40:30.126Z,7.20
2023-04-02T04:43:03.556Z,7.20
2023-04-02T04:45:42.096Z,7.20
2023-04-02T04:48:16.736Z,7.20
2023-04-02T04:50:53.688Z,7.20
2023-04-02T04:53:27.586Z,7.20
2023-04-02T04:56:18.126Z,7.20
2023-04-02T04:58:38.776Z,7.20
2023-04-02T05:01:13.480Z,7.20
2023-04-02T05:03:47.184Z,7.20
2023-04-02T05:06:21.435Z,7.20
2023-04-02T05:08:55.183Z,7.20
2023-04-02T05:11:29.900Z,7.20
2023-04-02T05:14:03.523Z,7.20
2023-04-02T05:16:37.813Z,7.20
2023-04-02T05:19:11.986Z,7.30
2023-04-02T05:21:47.338Z,7.30
2023-04-02T05:27:37.587Z,7.30
2023-04-02T05:30:17.132Z,7.20
2023-04-02T05:32:52.169Z,7.20
2023-04-02T05:35:45.140Z,7.20
2023-04-02T05:38:21.769Z,7.20
2023-04-02T05:40:56.721Z,7.30
2023-04-02T05:43:29.310Z,7.30
2023-04-02T05:46:03.736Z,7.40
2023-04-02T05:48:37.630Z,7.40
2023-04-02T05:51:11.947Z,7.40
2023-04-02T05:53:48.932Z,7.40
2023-04-02T05:56:23.249Z,7.50
2023-04-02T05:58:58.288Z,7.60
2023-04-02T06:01:36.414Z,7.60
2023-04-02T06:04:11.829Z,7.60
2023-04-02T06:07:05.297Z,7.50
2023-04-02T06:09:41.969Z,7.50
2023-04-02T06:12:26.647Z,7.50
2023-04-02T06:14:57.732Z,7.50
2023-04-02T06:17:28.622Z,7.60
2023-04-02T06:20:01.578Z,7.50
2023-04-02T06:22:37.812Z,7.50
2023-04-02T06:25:13.255Z,7.60
2023-04-02T06:27:46.535Z,7.70
2023-04-02T06:30:20.735Z,7.70
2023-04-02T06:32:51.926Z,7.70
2023-04-02T06:35:22.883Z,7.80
2023-04-02T06:37:57.523Z,7.80
2023-04-02T06:40:36.412Z,7.80
2023-04-02T06:43:10.142Z,7.90
2023-04-02T06:45:44.055Z,7.90
2023-04-02T06:48:18.185Z,8.00
2023-04-02T06:50:52.703Z,8.10
2023-04-02T06:53:27.148Z,8.00
2023-04-02T06:56:00.758Z,8.10
2023-04-02T06:58:31.371Z,8.10
2023-04-02T07:01:02.312Z,8.20
2023-04-02T07:03:34.043Z,8.20
2023-04-02T07:06:05.527Z,8.20
2023-04-02T07:08:36.278Z,8.30
2023-04-02T07:11:07.076Z,8.40
2023-04-02T07:13:38.004Z,8.50
2023-04-02T07:16:12.806Z,8.50
2023-04-02T07:18:44.225Z,8.60
2023-04-02T07:21:15.095Z,8.60
2023-04-02T07:23:45.693Z,8.50
2023-04-02T07:26:18.689Z,8.40
2023-04-02T07:28:49.420Z,8.40
2023-04-02T07:31:22.169Z,8.40
2023-04-02T07:33:54.218Z,8.50
2023-04-02T07:36:26.445Z,8.50
2023-04-02T07:38:57.393Z,8.50
2023-04-02T07:41:29.256Z,8.50
2023-04-02T07:43:59.943Z,8.60
2023-04-02T07:46:30.658Z,8.60
2023-04-02T07:49:01.417Z,8.60
2023-04-02T07:51:33.244Z,8.60
2023-04-02T07:54:04.830Z,8.70
2023-04-02T07:56:35.548Z,8.80
2023-04-02T07:59:07.250Z,8.90
2023-04-02T08:01:37.933Z,8.80
2023-04-02T08:04:10.157Z,8.70
2023-04-02T08:06:40.776Z,8.60
2023-04-02T08:09:11.416Z,8.60
2023-04-02T08:11:42.871Z,8.80
2023-04-02T08:14:13.521Z,8.80
2023-04-02T08:16:49.550Z,8.90
2023-04-02T08:19:20.830Z,9.10
2023-04-02T08:21:52.004Z,9.00
2023-04-02T08:24:22.938Z,9.00
2023-04-02T08:26:54.387Z,9.10
2023-04-02T08:29:25.168Z,9.10
2023-04-02T08:31:56.082Z,9.20
2023-04-02T08:34:27.142Z,9.20
2023-04-02T08:36:59.796Z,9.00
2023-04-02T08:39:32.293Z,8.90
2023-04-02T08:42:06.636Z,8.90
2023-04-02T08:44:43.952Z,8.80
2023-04-02T08:47:16.692Z,8.70
2023-04-02T08:49:51.119Z,8.70
2023-04-02T08:52:27.092Z,8.80
2023-04-02T08:54:58.372Z,8.80
2023-04-02T08:57:36.291Z,8.80
2023-04-02T09:00:13.951Z,8.80
2023-04-02T09:02:47.197Z,8.80
2023-04-02T09:05:21.785Z,8.90
2023-04-02T09:07:54.761Z,8.90
2023-04-02T09:13:08.722Z,8.90
2023-04-02T09:15:39.827Z,9.00
2023-04-02T09:18:14.945Z,9.10
2023-04-02T09:20:48.398Z,9.10
2023-04-02T09:23:22.525Z,9.20
2023-04-02T09:26:04.077Z,9.10
2023-04-02T09:28:29.266Z,9.00
2023-04-02T09:31:07.119Z,8.90
2023-04-02T09:33:47.054Z,9.00
2023-04-02T09:36:30.136Z,9.00
2023-04-02T09:39:06.030Z,9.00
2023-04-02T09:41:38.619Z,9.10
2023-04-02T09:44:21.440Z,9.30
2023-04-02T09:46:59.238Z,9.50
2023-04-02T09:49:32.577Z,9.60
2023-04-02T09:52:20.250Z,9.70
2023-04-02T09:55:08.456Z,9.90
2023-04-02T09:57:39.129Z,10.00
2023-04-02T10:00:30.768Z,10.00
2023-04-02T10:03:05.711Z,9.80
2023-04-02T10:05:41.127Z,9.90
2023-04-02T10:08:15.711Z,10.10
2023-04-02T10:10:49.841Z,10.20
2023-04-02T10:13:27.953Z,10.10
2023-04-02T10:16:02.709Z,10.30
2023-04-02T10:18:38.272Z,10.20
2023-04-02T10:21:12.046Z,10.20
2023-04-02T10:23:43.127Z,10.00
2023-04-02T10:26:33.913Z,10.00
2023-04-02T10:29:39.349Z,10.00
2023-04-02T10:32:13.528Z,10.00
2023-04-02T10:34:49.297Z,9.90
2023-04-02T10:37:36.003Z,9.80
2023-04-02T10:40:11.032Z,9.80
2023-04-02T10:42:45.681Z,9.90
2023-04-02T10:45:24.097Z,9.90
2023-04-02T10:47:57.920Z,9.90
2023-04-02T10:50:34.266Z,9.90
2023-04-02T10:53:10.123Z,9.90
2023-04-02T10:55:44.409Z,9.90
2023-04-02T10:58:22.855Z,10.00
2023-04-02T11:00:56.672Z,9.80
2023-04-02T11:03:32.643Z,9.80
2023-04-02T11:06:07.288Z,10.00
2023-04-02T11:08:43.894Z,10.10
2023-04-02T11:11:17.549Z,10.20
2023-04-02T11:13:56.334Z,10.40
2023-04-02T11:16:28.233Z,10.30
2023-04-02T11:19:34.888Z,10.10
2023-04-02T11:22:07.877Z,9.90
2023-04-02T11:24:46.522Z,9.90
2023-04-02T11:27:22.312Z,9.70
2023-04-02T11:29:56.115Z,9.60
2023-04-02T11:32:42.932Z,9.50
2023-04-02T11:35:41.014Z,9.30
2023-04-02T11:38:57.617Z,9.20
2023-04-02T11:44:42.834Z,9.10
2023-04-02T11:47:22.214Z,9.30
2023-04-02T11:50:05.355Z,9.40
2023-04-02T11:52:55.189Z,9.60
2023-04-02T11:55:30.880Z,9.80
2023-04-02T11:58:33.908Z,10.10
2023-04-02T12:01:20.872Z,10.30
2023-04-02T12:04:26.277Z,10.40
2023-04-02T12:07:04.466Z,10.60
2023-04-02T12:09:38.186Z,10.80
2023-04-02T12:12:21.783Z,11.20
2023-04-02T12:14:55.082Z,11.50
2023-04-02T12:17:31.441Z,11.60
2023-04-02T12:20:07.321Z,11.60
2023-04-02T12:22:41.289Z,11.60
2023-04-02T12:25:26.805Z,11.50
2023-04-02T12:28:09.621Z,11.20
2023-04-02T12:30:40.911Z,10.70
2023-04-02T12:33:33.222Z,10.40
2023-04-02T12:36:06.398Z,10.20
2023-04-02T12:38:39.916Z,10.00
2023-04-02T12:41:24.420Z,10.10
2023-04-02T12:44:03.613Z,9.90
2023-04-02T12:46:36.731Z,9.80
2023-04-02T12:49:10.423Z,9.90
2023-04-02T12:51:41.695Z,10.10
2023-04-02T12:54:16.024Z,10.00
2023-04-02T12:56:46.873Z,9.90
2023-04-02T12:59:33.967Z,10.10
2023-04-02T13:02:07.226Z,10.20
2023-04-02T13:04:48.328Z,10.20
2023-04-02T13:07:22.163Z,10.30
2023-04-02T13:09:54.485Z,10.20
2023-04-02T13:12:31.096Z,10.20
2023-04-02T13:15:04.200Z,10.20
2023-04-02T13:17:44.012Z,10.20
2023-04-02T13:20:36.431Z,10.30
2023-04-02T13:23:28.143Z,10.10
2023-04-02T13:25:59.930Z,10.10
2023-04-02T13:28:30.882Z,9.90
2023-04-02T13:31:01.497Z,9.90
2023-04-02T13:33:32.125Z,9.80
2023-04-02T13:36:02.825Z,10.00
2023-04-02T13:38:33.473Z,9.90
2023-04-02T13:41:04.162Z,9.90
2023-04-02T13:43:34.834Z,10.10
2023-04-02T13:46:08.013Z,10.20
2023-04-02T13:48:39.144Z,10.20
2023-04-02T13:51:11.208Z,10.30
2023-04-02T13:53:42.385Z,10.30
2023-04-02T13:56:13.077Z,10.10
2023-04-02T13:58:43.668Z,10.20
2023-04-02T14:01:15.395Z,10.30
2023-04-02T14:03:46.562Z,10.30
2023-04-02T14:06:20.804Z,10.40
2023-04-02T14:08:56.718Z,10.40
2023-04-02T14:11:36.622Z,10.40
2023-04-02T14:14:19.429Z,10.50
2023-04-02T14:16:57.652Z,10.40
2023-04-02T14:19:36.207Z,10.40
2023-04-02T14:22:13.424Z,10.40
2023-04-02T14:24:48.128Z,10.30
2023-04-02T14:27:26.331Z,10.20
2023-04-02T14:30:00.947Z,10.20
2023-04-02T14:32:35.794Z,10.10
2023-04-02T14:35:11.080Z,10.10
2023-04-02T14:37:45.386Z,10.00
2023-04-02T14:40:22.701Z,10.20
2023-04-02T14:42:57.739Z,10.10
2023-04-02T14:45:37.305Z,10.10
2023-04-02T14:48:11.831Z,10.20
2023-04-02T14:50:44.018Z,10.20
2023-04-02T14:53:18.586Z,10.20
2023-04-02T14:55:52.593Z,10.30
2023-04-02T15:01:03.439Z,10.40
2023-04-02T15:06:16.729Z,10.30
2023-04-02T15:11:30.576Z,9.90
2023-04-02T15:19:16.897Z,9.90
2023-04-02T15:22:08.135Z,10.10
2023-04-02T15:24:42.779Z,9.90
2023-04-02T15:30:00.883Z,9.90
2023-04-02T15:32:39.044Z,10.10
2023-04-02T15:35:35.772Z,10.20
2023-04-02T15:38:11.800Z,10.20
2023-04-02T15:40:52.077Z,10.20
2023-04-02T15:43:26.573Z,10.30
2023-04-02T15:46:04.816Z,10.20
2023-04-02T15:49:01.772Z,10.20
2023-04-02T15:51:59.003Z,10.30
2023-04-02T15:54:51.334Z,10.40
2023-04-02T15:57:28.643Z,10.10
2023-04-02T16:00:18.973Z,10.10
2023-04-02T16:03:13.309Z,10.10
2023-04-02T16:05:48.817Z,10.10
2023-04-02T16:08:32.185Z,10.00
2023-04-02T16:11:03.711Z,9.90
2023-04-02T16:13:37.895Z,9.80
2023-04-02T16:16:12.145Z,9.80
2023-04-02T16:18:53.900Z,9.70
2023-04-02T16:21:27.885Z,9.70
2023-04-02T16:23:58.868Z,9.80
2023-04-02T16:26:39.184Z,9.60
2023-04-02T16:29:22.540Z,9.70
2023-04-02T16:31:57.594Z,9.60
2023-04-02T16:34:35.041Z,9.60
2023-04-02T16:37:10.534Z,9.70
2023-04-02T16:39:45.273Z,9.50
2023-04-02T16:42:25.993Z,9.60
2023-04-02T16:45:04.047Z,9.50
2023-04-02T16:47:50.682Z,9.50
2023-04-02T16:50:28.028Z,9.50
2023-04-02T16:53:04.378Z,9.40
2023-04-02T16:55:44.237Z,9.30
2023-04-02T16:58:27.026Z,9.30
2023-04-02T17:01:02.309Z,9.30
2023-04-02T17:04:00.638Z,9.30
2023-04-02T17:06:39.414Z,9.20
2023-04-02T17:09:17.531Z,9.30
2023-04-02T17:11:51.549Z,9.20
2023-04-02T17:14:32.456Z,9.20
2023-04-02T17:17:06.337Z,9.20
2023-04-02T17:19:37.590Z,9.10
2023-04-02T17:22:10.022Z,9.20
2023-04-02T17:24:44.210Z,9.30
2023-04-02T17:27:19.912Z,9.30
2023-04-02T17:29:54.845Z,9.30
2023-04-02T17:32:29.916Z,9.10
2023-04-02T17:35:04.553Z,9.10
2023-04-02T17:37:38.617Z,9.00
2023-04-02T17:40:16.702Z,9.10
2023-04-02T17:42:52.282Z,9.10
2023-04-02T17:45:26.683Z,9.00
2023-04-02T17:48:03.763Z,9.00
2023-04-02T17:51:08.860Z,9.00
2023-04-02T17:53:47.349Z,8.90
2023-04-02T17:56:32.847Z,8.90
2023-04-02T17:59:23.990Z,8.80
2023-04-02T18:01:58.646Z,8.90
2023-04-02T18:04:36.759Z,9.00
2023-04-02T18:07:16.306Z,8.90
2023-04-02T18:09:50.843Z,8.80
2023-04-02T18:12:30.698Z,8.70
2023-04-02T18:15:07.111Z,8.70
2023-04-02T18:17:44.743Z,8.70
2023-04-02T18:20:26.438Z,8.80
2023-04-02T18:23:01.542Z,8.90
2023-04-02T18:25:45.280Z,8.80
2023-04-02T18:28:27.075Z,8.70
2023-04-02T18:31:01.614Z,8.70
2023-04-02T18:33:39.888Z,8.70
2023-04-02T18:36:16.862Z,8.70
2023-04-02T18:38:51.297Z,8.60
2023-04-02T18:41:30.690Z,8.70
2023-04-02T18:46:48.934Z,8.70
2023-04-02T18:49:28.591Z,8.70
2023-04-02T18:52:19.101Z,8.70
2023-04-02T18:54:53.572Z,8.70
2023-04-02T18:57:29.100Z,8.70
2023-04-02T19:02:45.703Z,8.60
2023-04-02T19:05:22.570Z,8.60
2023-04-02T19:07:57.256Z,8.60
2023-04-02T19:10:32.907Z,8.60
2023-04-02T19:13:04.354Z,8.50
2023-04-02T19:15:40.268Z,8.50
2023-04-02T19:18:17.058Z,8.50
2023-04-02T19:20:52.056Z,8.60
2023-04-02T19:23:33.606Z,8.60
2023-04-02T19:26:07.502Z,8.50
2023-04-02T19:28:43.163Z,8.50
2023-04-02T19:31:38.611Z,8.50
2023-04-02T19:34:15.727Z,8.50
2023-04-02T19:36:54.967Z,8.50
2023-04-02T19:39:54.174Z,8.60
2023-04-02T19:42:46.505Z,8.60
2023-04-02T19:45:38.967Z,8.60
2023-04-02T19:48:15.592Z,8.60
2023-04-02T19:50:47.995Z,8.50
2023-04-02T19:53:19.696Z,8.50
2023-04-02T19:55:50.881Z,8.60
2023-04-02T19:58:26.740Z,8.50
2023-04-02T20:00:58.350Z,8.60
2023-04-02T20:03:30.527Z,8.50
2023-04-02T20:06:01.948Z,8.60
2023-04-02T20:08:33.178Z,8.60
2023-04-02T20:11:04.234Z,8.50
2023-04-02T20:13:35.157Z,8.50
2023-04-02T20:16:08.139Z,8.50
2023-04-02T20:18:39.112Z,8.50
2023-04-02T20:21:10.230Z,8.50
2023-04-02T20:23:41.294Z,8.50
2023-04-02T20:26:13.022Z,8.50
2023-04-02T20:28:43.670Z,8.50
2023-04-02T20:31:17.391Z,8.40
2023-04-02T20:33:48.787Z,8.40
2023-04-02T20:36:20.362Z,8.40
2023-04-02T20:38:51.817Z,8.30
2023-04-02T20:44:01.355Z,8.30
2023-04-02T20:46:32.038Z,8.30
2023-04-02T20:49:03.313Z,8.30
2023-04-02T20:51:34.522Z,8.30
2023-04-02T20:54:05.338Z,8.30
2023-04-02T20:56:36.073Z,8.30
2023-04-02T20:59:06.653Z,8.40
2023-04-02T21:01:37.863Z,8.40
2023-04-02T21:04:08.696Z,8.40
2023-04-02T21:06:40.880Z,8.40
2023-04-02T21:09:14.686Z,8.40
2023-04-02T21:11:46.542Z,8.40
2023-04-02T21:14:17.249Z,8.40
2023-04-02T21:16:47.932Z,8.40
2023-04-02T21:19:18.552Z,8.30
2023-04-02T21:21:49.312Z,8.30
2023-04-02T21:24:19.865Z,8.20
2023-04-02T21:26:51.517Z,8.20
2023-04-02T21:29:22.165Z,8.20
2023-04-02T21:31:53.427Z,8.20
2023-04-02T21:34:24.067Z,8.30
2023-04-02T21:36:54.652Z,8.30
2023-04-02T21:39:27.380Z,8.30
2023-04-02T21:41:58.054Z,8.30
2023-04-02T21:44:28.793Z,8.40
2023-04-02T21:46:59.446Z,8.40
2023-04-02T21:49:30.730Z,8.40
2023-04-02T21:52:01.741Z,8.30
2023-04-02T21:54:31.572Z,8.20
2023-04-02T21:57:02.280Z,8.20
2023-04-02T21:59:32.892Z,8.20
2023-04-02T22:02:04.897Z,8.20
2023-04-02T22:04:35.486Z,8.20
2023-04-02T22:07:06.191Z,8.20
2023-04-02T22:09:36.778Z,8.20
2023-04-02T22:12:08.300Z,8.30
2023-04-02T22:14:39.022Z,8.20
2023-04-02T22:17:09.657Z,8.20
2023-04-02T22:19:40.669Z,8.20
2023-04-02T22:22:11.471Z,8.30
2023-04-02T22:24:42.166Z,8.30
2023-04-02T22:27:13.014Z,8.20
2023-04-02T22:29:43.628Z,8.20
2023-04-02T22:32:14.293Z,8.30
2023-04-02T22:34:45.864Z,8.40
2023-04-02T22:37:16.696Z,8.30
2023-04-02T22:39:47.465Z,8.30
2023-04-02T22:42:18.089Z,8.20
2023-04-02T22:44:48.759Z,8.20
2023-04-02T22:47:19.804Z,8.20
2023-04-02T22:49:50.435Z,8.20
2023-04-02T22:52:21.190Z,8.10
2023-04-02T22:54:51.889Z,8.10
2023-04-02T22:57:22.715Z,8.10
2023-04-02T22:59:53.429Z,8.10
2023-04-02T23:02:24.050Z,8.20
2023-04-02T23:04:54.665Z,8.10
2023-04-02T23:07:25.499Z,8.10
2023-04-02T23:09:56.573Z,8.10
2023-04-02T23:12:27.186Z,8.00
2023-04-02T23:14:58.192Z,8.10
2023-04-02T23:17:28.918Z,8.00
2023-04-02T23:19:59.612Z,8.00
2023-04-02T23:22:30.174Z,8.00
2023-04-02T23:25:01.225Z,8.00
2023-04-02T23:27:31.853Z,8.00
2023-04-02T23:30:02.703Z,7.90
2023-04-02T23:32:33.415Z,7.90
2023-04-02T23:35:04.175Z,7.90
2023-04-02T23:37:34.916Z,7.90
2023-04-02T23:40:06.522Z,7.90
2023-04-02T23:42:37.197Z,7.90
2023-04-02T23:45:10.147Z,7.90
2023-04-02T23:47:40.927Z,7.90
2023-04-02T23:50:12.925Z,7.90
2023-04-02T23:52:43.720Z,7.90
2023-04-02T23:55:14.372Z,7.90
2023-04-02T23:57:44.922Z,7.90
